sensor_id;sensor_type;location;lat;lon;timestamp;pressure;altitude;pressure_sealevel;temperature;humidity
45078;BME280;60508;42.622;25.416;2023-04-15T00:00:07;96117.41;;;13.05;71.00
45078;BME280;60508;42.622;25.416;2023-04-15T00:02:38;96103.69;;;12.91;72.63
45078;BME280;60508;42.622;25.416;2023-04-15T00:05:05;96068.03;;;13.10;73.67
45078;BME280;60508;42.622;25.416;2023-04-15T00:07:31;96030.44;;;13.34;74.29
45078;BME280;60508;42.622;25.416;2023-04-15T00:09:57;96012.81;;;13.42;74.56
45078;BME280;60508;42.622;25.416;2023-04-15T00:12:24;96044.66;;;12.85;78.94
45078;BME280;60508;42.622;25.416;2023-04-15T00:14:50;96066.69;;;12.11;85.02
45078;BME280;60508;42.622;25.416;2023-04-15T00:17:17;96091.16;;;11.94;87.79
45078;BME280;60508;42.622;25.416;2023-04-15T00:19:43;96077.97;;;12.03;88.20
45078;BME280;60508;42.622;25.416;2023-04-15T00:22:11;96060.19;;;12.28;87.08
45078;BME280;60508;42.622;25.416;2023-04-15T00:24:37;96055.56;;;12.49;86.83
45078;BME280;60508;42.622;25.416;2023-04-15T00:27:04;96065.19;;;12.75;85.26
45078;BME280;60508;42.622;25.416;2023-04-15T00:29:31;96088.59;;;12.85;83.93
45078;BME280;60508;42.622;25.416;2023-04-15T00:31:57;96096.41;;;12.92;83.58
45078;BME280;60508;42.622;25.416;2023-04-15T00:34:23;96115.78;;;13.04;83.22
45078;BME280;60508;42.622;25.416;2023-04-15T00:36:52;96150.81;;;13.14;82.67
45078;BME280;60508;42.622;25.416;2023-04-15T00:39:18;96137.56;;;13.18;82.17
45078;BME280;60508;42.622;25.416;2023-04-15T00:41:46;96115.69;;;13.25;81.93
45078;BME280;60508;42.622;25.416;2023-04-15T00:44:12;96099.75;;;13.33;81.58
45078;BME280;60508;42.622;25.416;2023-04-15T00:46:39;96068.69;;;13.41;80.51
45078;BME280;60508;42.622;25.416;2023-04-15T00:49:06;96028.25;;;13.36;81.08
45078;BME280;60508;42.622;25.416;2023-04-15T00:51:33;96001.03;;;13.32;81.08
45078;BME280;60508;42.622;25.416;2023-04-15T00:54:04;96012.06;;;13.31;79.90
45078;BME280;60508;42.622;25.416;2023-04-15T00:56:35;96029.81;;;12.92;81.26
45078;BME280;60508;42.622;25.416;2023-04-15T00:59:03;96059.50;;;12.82;81.82
45078;BME280;60508;42.622;25.416;2023-04-15T01:01:30;96096.94;;;12.94;81.14
45078;BME280;60508;42.622;25.416;2023-04-15T01:03:56;96092.31;;;13.00;80.55
45078;BME280;60508;42.622;25.416;2023-04-15T01:06:26;96099.41;;;12.80;81.98
45078;BME280;60508;42.622;25.416;2023-04-15T01:08:53;96105.63;;;12.70;83.40
45078;BME280;60508;42.622;25.416;2023-04-15T01:11:20;96094.06;;;12.54;84.56
45078;BME280;60508;42.622;25.416;2023-04-15T01:13:49;96072.81;;;12.42;85.71
45078;BME280;60508;42.622;25.416;2023-04-15T01:16:17;96073.06;;;12.56;84.86
45078;BME280;60508;42.622;25.416;2023-04-15T01:18:44;96067.16;;;12.49;85.02
45078;BME280;60508;42.622;25.416;2023-04-15T01:21:11;96067.16;;;12.49;84.47
45078;BME280;60508;42.622;25.416;2023-04-15T01:23:38;96041.50;;;12.67;84.45
45078;BME280;60508;42.622;25.416;2023-04-15T01:26:07;96030.00;;;12.36;84.06
45078;BME280;60508;42.622;25.416;2023-04-15T01:28:34;96028.16;;;12.21;84.49
45078;BME280;60508;42.622;25.416;2023-04-15T01:31:07;96035.19;;;12.01;84.77
45078;BME280;60508;42.622;25.416;2023-04-15T01:33:36;96052.13;;;12.12;84.57
45078;BME280;60508;42.622;25.416;2023-04-15T01:36:21;96052.06;;;12.43;82.70
45078;BME280;60508;42.622;25.416;2023-04-15T01:38:47;96077.94;;;12.39;82.14
45078;BME280;60508;42.622;25.416;2023-04-15T01:41:13;96073.91;;;12.36;83.13
45078;BME280;60508;42.622;25.416;2023-04-15T01:43:39;96093.84;;;12.20;86.41
45078;BME280;60508;42.622;25.416;2023-04-15T01:46:08;96082.28;;;12.19;87.08
45078;BME280;60508;42.622;25.416;2023-04-15T01:48:33;96080.41;;;12.15;88.13
45078;BME280;60508;42.622;25.416;2023-04-15T01:51:00;96080.13;;;12.01;89.47
45078;BME280;60508;42.622;25.416;2023-04-15T01:53:26;96084.44;;;12.22;88.60
45078;BME280;60508;42.622;25.416;2023-04-15T01:55:52;96092.78;;;12.16;88.53
45078;BME280;60508;42.622;25.416;2023-04-15T01:58:18;96098.16;;;12.36;87.14
45078;BME280;60508;42.622;25.416;2023-04-15T02:00:44;96092.19;;;12.45;86.99
45078;BME280;60508;42.622;25.416;2023-04-15T02:03:10;96089.50;;;12.50;86.76
45078;BME280;60508;42.622;25.416;2023-04-15T02:05:36;96085.72;;;12.51;86.70
45078;BME280;60508;42.622;25.416;2023-04-15T02:08:03;96063.03;;;12.72;85.44
45078;BME280;60508;42.622;25.416;2023-04-15T02:10:28;96052.00;;;12.69;85.53
45078;BME280;60508;42.622;25.416;2023-04-15T02:12:55;96042.38;;;12.42;86.47
45078;BME280;60508;42.622;25.416;2023-04-15T02:15:21;96055.34;;;12.04;88.90
45078;BME280;60508;42.622;25.416;2023-04-15T02:17:49;96079.06;;;12.02;89.73
45078;BME280;60508;42.622;25.416;2023-04-15T02:20:18;96096.53;;;12.04;89.77
45078;BME280;60508;42.622;25.416;2023-04-15T02:22:46;96121.34;;;12.12;90.29
45078;BME280;60508;42.622;25.416;2023-04-15T02:25:14;96097.38;;;12.05;88.71
45078;BME280;60508;42.622;25.416;2023-04-15T02:27:42;96128.59;;;12.32;88.50
45078;BME280;60508;42.622;25.416;2023-04-15T02:30:09;96136.94;;;12.30;88.12
45078;BME280;60508;42.622;25.416;2023-04-15T02:32:35;96145.81;;;12.62;87.42
45078;BME280;60508;42.622;25.416;2023-04-15T02:35:04;96141.75;;;12.74;86.65
45078;BME280;60508;42.622;25.416;2023-04-15T02:37:31;96130.13;;;12.84;85.50
45078;BME280;60508;42.622;25.416;2023-04-15T02:39:57;96136.88;;;12.92;85.29
45078;BME280;60508;42.622;25.416;2023-04-15T02:42:23;96112.88;;;12.90;84.42
45078;BME280;60508;42.622;25.416;2023-04-15T02:44:52;96130.09;;;12.94;84.08
45078;BME280;60508;42.622;25.416;2023-04-15T02:47:21;96107.97;;;12.97;83.79
45078;BME280;60508;42.622;25.416;2023-04-15T02:49:47;96109.88;;;12.97;83.05
45078;BME280;60508;42.622;25.416;2023-04-15T02:52:13;96117.69;;;12.99;82.61
45078;BME280;60508;42.622;25.416;2023-04-15T02:54:39;96111.19;;;13.00;82.22
45078;BME280;60508;42.622;25.416;2023-04-15T02:57:05;96097.44;;;13.01;82.30
45078;BME280;60508;42.622;25.416;2023-04-15T02:59:31;96084.22;;;13.05;81.77
45078;BME280;60508;42.622;25.416;2023-04-15T03:01:57;96061.53;;;13.11;81.06
45078;BME280;60508;42.622;25.416;2023-04-15T03:04:26;96063.28;;;12.81;81.88
45078;BME280;60508;42.622;25.416;2023-04-15T03:06:54;96086.84;;;12.29;84.63
45078;BME280;60508;42.622;25.416;2023-04-15T03:09:21;96075.28;;;11.98;87.09
45078;BME280;60508;42.622;25.416;2023-04-15T03:11:47;96082.00;;;12.05;86.95
45078;BME280;60508;42.622;25.416;2023-04-15T03:14:14;96090.63;;;12.02;86.76
45078;BME280;60508;42.622;25.416;2023-04-15T03:16:44;96073.91;;;11.69;88.54
45078;BME280;60508;42.622;25.416;2023-04-15T03:19:14;96085.72;;;11.79;88.41
45078;BME280;60508;42.622;25.416;2023-04-15T03:21:42;96085.47;;;11.75;89.08
45078;BME280;60508;42.622;25.416;2023-04-15T03:24:07;96087.34;;;11.64;89.57
45078;BME280;60508;42.622;25.416;2023-04-15T03:26:33;96085.72;;;11.68;88.84
45078;BME280;60508;42.622;25.416;2023-04-15T03:29:08;96083.84;;;11.69;89.64
45078;BME280;60508;42.622;25.416;2023-04-15T03:31:34;96074.69;;;11.75;89.53
45078;BME280;60508;42.622;25.416;2023-04-15T03:34:00;96084.09;;;11.67;89.83
45078;BME280;60508;42.622;25.416;2023-04-15T03:36:30;96104.59;;;11.84;89.13
45078;BME280;60508;42.622;25.416;2023-04-15T03:39:02;96106.50;;;11.88;88.44
45078;BME280;60508;42.622;25.416;2023-04-15T03:41:29;96112.72;;;12.20;87.35
45078;BME280;60508;42.622;25.416;2023-04-15T03:43:55;96124.28;;;12.26;86.71
45078;BME280;60508;42.622;25.416;2023-04-15T03:46:21;96124.84;;;12.28;86.22
45078;BME280;60508;42.622;25.416;2023-04-15T03:48:47;96125.63;;;12.23;86.31
45078;BME280;60508;42.622;25.416;2023-04-15T03:51:13;96130.72;;;12.40;85.47
45078;BME280;60508;42.622;25.416;2023-04-15T03:53:39;96131.81;;;12.44;85.01
45078;BME280;60508;42.622;25.416;2023-04-15T03:56:05;96134.78;;;12.48;84.93
45078;BME280;60508;42.622;25.416;2023-04-15T03:58:31;96135.31;;;12.60;83.48
45078;BME280;60508;42.622;25.416;2023-04-15T04:00:57;96136.66;;;12.68;82.25
45078;BME280;60508;42.622;25.416;2023-04-15T04:03:23;96134.22;;;12.66;81.14
45078;BME280;60508;42.622;25.416;2023-04-15T04:05:49;96133.09;;;12.72;80.50
45078;BME280;60508;42.622;25.416;2023-04-15T04:08:15;96137.41;;;12.78;80.49
45078;BME280;60508;42.622;25.416;2023-04-15T04:10:42;96171.66;;;12.83;80.00
45078;BME280;60508;42.622;25.416;2023-04-15T04:13:08;96192.41;;;12.83;79.71
45078;BME280;60508;42.622;25.416;2023-04-15T04:15:34;96204.28;;;12.71;80.77
45078;BME280;60508;42.622;25.416;2023-04-15T04:18:00;96209.13;;;12.64;81.23
45078;BME280;60508;42.622;25.416;2023-04-15T04:20:26;96192.44;;;12.62;81.06
45078;BME280;60508;42.622;25.416;2023-04-15T04:22:52;96220.97;;;12.78;80.17
45078;BME280;60508;42.622;25.416;2023-04-15T04:25:18;96215.56;;;12.84;79.53
45078;BME280;60508;42.622;25.416;2023-04-15T04:27:44;96215.88;;;12.87;79.73
45078;BME280;60508;42.622;25.416;2023-04-15T04:30:10;96216.13;;;12.91;80.10
45078;BME280;60508;42.622;25.416;2023-04-15T04:32:37;96205.59;;;12.89;80.04
45078;BME280;60508;42.622;25.416;2023-04-15T04:35:03;96209.94;;;12.90;80.26
45078;BME280;60508;42.622;25.416;2023-04-15T04:37:30;96219.03;;;13.05;80.03
45078;BME280;60508;42.622;25.416;2023-04-15T04:39:55;96219.06;;;13.00;80.24
45078;BME280;60508;42.622;25.416;2023-04-15T04:42:21;96215.31;;;12.85;80.43
45078;BME280;60508;42.622;25.416;2023-04-15T04:44:47;96209.16;;;12.49;82.37
45078;BME280;60508;42.622;25.416;2023-04-15T04:47:13;96201.31;;;12.16;84.17
45078;BME280;60508;42.622;25.416;2023-04-15T04:49:39;96193.50;;;12.10;84.72
45078;BME280;60508;42.622;25.416;2023-04-15T04:52:05;96184.25;;;11.85;85.83
45078;BME280;60508;42.622;25.416;2023-04-15T04:54:32;96194.22;;;11.84;86.85
45078;BME280;60508;42.622;25.416;2023-04-15T04:56:58;96197.78;;;11.95;86.77
45078;BME280;60508;42.622;25.416;2023-04-15T04:59:24;96192.72;;;12.19;85.99
45078;BME280;60508;42.622;25.416;2023-04-15T05:01:51;96190.28;;;12.49;83.17
45078;BME280;60508;42.622;25.416;2023-04-15T05:04:17;96189.19;;;12.65;82.41
45078;BME280;60508;42.622;25.416;2023-04-15T05:06:43;96194.28;;;12.82;81.89
45078;BME280;60508;42.622;25.416;2023-04-15T05:09:09;96188.13;;;12.71;82.13
45078;BME280;60508;42.622;25.416;2023-04-15T05:11:35;96167.91;;;12.43;82.64
45078;BME280;60508;42.622;25.416;2023-04-15T05:14:01;96144.75;;;12.21;84.46
45078;BME280;60508;42.622;25.416;2023-04-15T05:16:27;96144.22;;;12.24;84.96
45078;BME280;60508;42.622;25.416;2023-04-15T05:18:53;96152.03;;;12.52;83.74
45078;BME280;60508;42.622;25.416;2023-04-15T05:21:19;96160.34;;;12.60;82.79
45078;BME280;60508;42.622;25.416;2023-04-15T05:23:48;96147.69;;;12.61;82.75
45078;BME280;60508;42.622;25.416;2023-04-15T05:26:14;96167.81;;;13.05;81.10
45078;BME280;60508;42.622;25.416;2023-04-15T05:28:40;96171.53;;;13.29;79.44
45078;BME280;60508;42.622;25.416;2023-04-15T05:31:06;96175.59;;;13.37;78.71
45078;BME280;60508;42.622;25.416;2023-04-15T05:33:34;96176.94;;;13.19;80.01
45078;BME280;60508;42.622;25.416;2023-04-15T05:36:00;96177.22;;;13.12;81.24
45078;BME280;60508;42.622;25.416;2023-04-15T05:38:26;96178.50;;;13.30;81.01
45078;BME280;60508;42.622;25.416;2023-04-15T05:40:52;96190.94;;;13.37;79.99
45078;BME280;60508;42.622;25.416;2023-04-15T05:43:18;96193.94;;;13.20;81.94
45078;BME280;60508;42.622;25.416;2023-04-15T05:45:44;96191.53;;;13.08;82.27
45078;BME280;60508;42.622;25.416;2023-04-15T05:48:10;96198.28;;;13.10;82.46
45078;BME280;60508;42.622;25.416;2023-04-15T05:50:36;96204.19;;;13.12;81.21
45078;BME280;60508;42.622;25.416;2023-04-15T05:53:02;96210.16;;;12.99;81.90
45078;BME280;60508;42.622;25.416;2023-04-15T05:55:28;96218.78;;;13.11;81.88
45078;BME280;60508;42.622;25.416;2023-04-15T05:57:54;96216.66;;;13.03;81.54
45078;BME280;60508;42.622;25.416;2023-04-15T06:00:21;96223.13;;;12.97;82.46
45078;BME280;60508;42.622;25.416;2023-04-15T06:02:47;96211.53;;;13.02;82.51
45078;BME280;60508;42.622;25.416;2023-04-15T06:05:13;96217.16;;;13.10;81.77
45078;BME280;60508;42.622;25.416;2023-04-15T06:07:39;96227.13;;;13.15;82.81
45078;BME280;60508;42.622;25.416;2023-04-15T06:10:06;96233.88;;;13.23;82.86
45078;BME280;60508;42.622;25.416;2023-04-15T06:12:32;96230.03;;;13.49;82.07
45078;BME280;60508;42.622;25.416;2023-04-15T06:14:58;96237.25;;;13.69;80.54
45078;BME280;60508;42.622;25.416;2023-04-15T06:17:24;96234.06;;;13.57;80.19
45078;BME280;60508;42.622;25.416;2023-04-15T06:19:50;96253.22;;;13.56;81.51
45078;BME280;60508;42.622;25.416;2023-04-15T06:22:21;96258.34;;;13.57;80.97
45078;BME280;60508;42.622;25.416;2023-04-15T06:24:50;96254.91;;;14.01;79.07
45078;BME280;60508;42.622;25.416;2023-04-15T06:27:17;96257.16;;;14.34;78.05
45078;BME280;60508;42.622;25.416;2023-04-15T06:29:43;96265.25;;;14.39;76.10
45078;BME280;60508;42.622;25.416;2023-04-15T06:32:09;96270.59;;;14.44;75.72
45078;BME280;60508;42.622;25.416;2023-04-15T06:34:36;96279.25;;;14.46;75.07
45078;BME280;60508;42.622;25.416;2023-04-15T06:37:02;96267.94;;;14.34;75.69
45078;BME280;60508;42.622;25.416;2023-04-15T06:39:29;96281.94;;;14.46;76.14
45078;BME280;60508;42.622;25.416;2023-04-15T06:41:55;96271.06;;;14.62;75.92
45078;BME280;60508;42.622;25.416;2023-04-15T06:44:21;96276.94;;;14.69;75.11
45078;BME280;60508;42.622;25.416;2023-04-15T06:46:47;96273.03;;;14.85;74.24
45078;BME280;60508;42.622;25.416;2023-04-15T06:49:13;96279.91;;;15.07;73.60
45078;BME280;60508;42.622;25.416;2023-04-15T06:51:41;96288.47;;;14.85;72.60
45078;BME280;60508;42.622;25.416;2023-04-15T06:54:07;96293.03;;;14.89;73.86
45078;BME280;60508;42.622;25.416;2023-04-15T06:56:33;96295.31;;;15.06;72.66
45078;BME280;60508;42.622;25.416;2023-04-15T06:58:59;96300.03;;;15.25;71.88
45078;BME280;60508;42.622;25.416;2023-04-15T07:01:25;96302.06;;;15.09;71.92
45078;BME280;60508;42.622;25.416;2023-04-15T07:03:52;96313.28;;;15.26;72.07
45078;BME280;60508;42.622;25.416;2023-04-15T07:06:18;96304.59;;;15.29;70.39
45078;BME280;60508;42.622;25.416;2023-04-15T07:08:44;96304.34;;;15.55;69.53
45078;BME280;60508;42.622;25.416;2023-04-15T07:11:10;96305.72;;;15.23;70.32
45078;BME280;60508;42.622;25.416;2023-04-15T07:13:36;96311.13;;;15.23;69.69
45078;BME280;60508;42.622;25.416;2023-04-15T07:16:02;96297.03;;;14.97;69.96
45078;BME280;60508;42.622;25.416;2023-04-15T07:18:29;96314.44;;;14.81;69.65
45078;BME280;60508;42.622;25.416;2023-04-15T07:20:55;96317.03;;;14.62;71.22
45078;BME280;60508;42.622;25.416;2023-04-15T07:23:21;96317.97;;;14.81;71.88
45078;BME280;60508;42.622;25.416;2023-04-15T07:25:47;96313.50;;;15.01;70.59
45078;BME280;60508;42.622;25.416;2023-04-15T07:28:13;96307.56;;;14.99;70.77
45078;BME280;60508;42.622;25.416;2023-04-15T07:30:40;96311.25;;;15.37;72.34
45078;BME280;60508;42.622;25.416;2023-04-15T07:33:06;96318.91;;;15.59;70.96
45078;BME280;60508;42.622;25.416;2023-04-15T07:35:32;96314.91;;;15.51;69.67
45078;BME280;60508;42.622;25.416;2023-04-15T07:37:58;96316.34;;;15.44;69.17
45078;BME280;60508;42.622;25.416;2023-04-15T07:40:24;96312.66;;;15.34;69.98
45078;BME280;60508;42.622;25.416;2023-04-15T07:42:51;96306.69;;;15.62;69.79
45078;BME280;60508;42.622;25.416;2023-04-15T07:45:17;96308.09;;;15.83;66.40
45078;BME280;60508;42.622;25.416;2023-04-15T07:47:43;96305.22;;;15.69;67.64
45078;BME280;60508;42.622;25.416;2023-04-15T07:50:09;96309.53;;;16.00;66.63
45078;BME280;60508;42.622;25.416;2023-04-15T07:52:36;96320.19;;;16.15;67.83
45078;BME280;60508;42.622;25.416;2023-04-15T07:55:07;96315.63;;;16.11;67.12
45078;BME280;60508;42.622;25.416;2023-04-15T07:57:33;96319.97;;;16.12;67.76
45078;BME280;60508;42.622;25.416;2023-04-15T08:00:00;96319.19;;;16.30;65.84
45078;BME280;60508;42.622;25.416;2023-04-15T08:02:38;96327.41;;;16.44;65.38
45078;BME280;60508;42.622;25.416;2023-04-15T08:05:05;96331.34;;;16.71;65.07
45078;BME280;60508;42.622;25.416;2023-04-15T08:07:32;96342.94;;;16.95;62.13
45078;BME280;60508;42.622;25.416;2023-04-15T08:09:58;96342.75;;;16.92;62.27
45078;BME280;60508;42.622;25.416;2023-04-15T08:12:24;96326.13;;;17.12;60.03
45078;BME280;60508;42.622;25.416;2023-04-15T08:14:50;96331.75;;;17.35;58.19
45078;BME280;60508;42.622;25.416;2023-04-15T08:17:16;96336.13;;;16.98;59.37
45078;BME280;60508;42.622;25.416;2023-04-15T08:19:43;96321.03;;;16.54;61.03
45078;BME280;60508;42.622;25.416;2023-04-15T08:22:09;96338.91;;;16.74;62.12
45078;BME280;60508;42.622;25.416;2023-04-15T08:24:36;96328.81;;;16.79;61.49
45078;BME280;60508;42.622;25.416;2023-04-15T08:27:04;96316.38;;;17.11;61.46
45078;BME280;60508;42.622;25.416;2023-04-15T08:29:31;96331.69;;;17.68;59.24
45078;BME280;60508;42.622;25.416;2023-04-15T08:31:59;96340.56;;;17.74;59.47
45078;BME280;60508;42.622;25.416;2023-04-15T08:34:26;96336.28;;;17.53;60.13
45078;BME280;60508;42.622;25.416;2023-04-15T08:36:52;96330.34;;;17.98;59.23
45078;BME280;60508;42.622;25.416;2023-04-15T08:39:18;96334.56;;;17.91;56.78
45078;BME280;60508;42.622;25.416;2023-04-15T08:42:09;96337.47;;;18.08;58.17
45078;BME280;60508;42.622;25.416;2023-04-15T08:44:33;96333.16;;;17.93;59.95
45078;BME280;60508;42.622;25.416;2023-04-15T08:47:00;96337.97;;;18.24;57.62
45078;BME280;60508;42.622;25.416;2023-04-15T08:49:27;96344.72;;;19.13;55.63
45078;BME280;60508;42.622;25.416;2023-04-15T08:51:54;96327.19;;;19.82;52.06
45078;BME280;60508;42.622;25.416;2023-04-15T08:54:21;96338.31;;;20.43;49.82
45078;BME280;60508;42.622;25.416;2023-04-15T08:56:48;96342.03;;;20.48;48.31
45078;BME280;60508;42.622;25.416;2023-04-15T08:59:14;96335.66;;;21.05;46.28
45078;BME280;60508;42.622;25.416;2023-04-15T09:01:41;96330.91;;;21.66;45.42
45078;BME280;60508;42.622;25.416;2023-04-15T09:04:07;96312.03;;;22.51;42.79
45078;BME280;60508;42.622;25.416;2023-04-15T09:06:33;96332.03;;;21.65;43.87
45078;BME280;60508;42.622;25.416;2023-04-15T09:08:59;96335.44;;;21.45;45.05
45078;BME280;60508;42.622;25.416;2023-04-15T09:11:26;96333.56;;;22.61;42.85
45078;BME280;60508;42.622;25.416;2023-04-15T09:13:51;96319.06;;;22.82;41.31
45078;BME280;60508;42.622;25.416;2023-04-15T09:16:17;96312.94;;;23.85;39.42
45078;BME280;60508;42.622;25.416;2023-04-15T09:18:44;96315.88;;;24.91;37.33
45078;BME280;60508;42.622;25.416;2023-04-15T09:21:16;96315.22;;;25.66;36.63
45078;BME280;60508;42.622;25.416;2023-04-15T09:24:00;96305.69;;;26.08;35.41
45078;BME280;60508;42.622;25.416;2023-04-15T09:26:34;96308.00;;;26.57;33.71
45078;BME280;60508;42.622;25.416;2023-04-15T09:29:05;96305.47;;;27.04;33.85
45078;BME280;60508;42.622;25.416;2023-04-15T09:31:32;96305.41;;;27.00;32.99
45078;BME280;60508;42.622;25.416;2023-04-15T09:33:58;96296.16;;;26.05;35.39
45078;BME280;60508;42.622;25.416;2023-04-15T09:36:24;96296.41;;;26.32;34.03
45078;BME280;60508;42.622;25.416;2023-04-15T09:38:55;96293.94;;;26.11;34.03
45078;BME280;60508;42.622;25.416;2023-04-15T09:41:22;96305.81;;;25.11;34.88
45078;BME280;60508;42.622;25.416;2023-04-15T09:43:49;96305.16;;;24.73;35.75
45078;BME280;60508;42.622;25.416;2023-04-15T09:46:15;96308.63;;;23.50;38.18
45078;BME280;60508;42.622;25.416;2023-04-15T09:48:41;96303.28;;;22.57;40.17
45078;BME280;60508;42.622;25.416;2023-04-15T09:51:07;96286.53;;;22.80;40.60
45078;BME280;60508;42.622;25.416;2023-04-15T09:53:35;96284.34;;;23.28;38.98
45078;BME280;60508;42.622;25.416;2023-04-15T09:56:01;96291.59;;;22.18;39.86
45078;BME280;60508;42.622;25.416;2023-04-15T09:58:31;96286.13;;;21.88;41.08
45078;BME280;60508;42.622;25.416;2023-04-15T10:00:59;96284.31;;;21.93;39.97
45078;BME280;60508;42.622;25.416;2023-04-15T10:03:30;96283.72;;;22.47;39.32
45078;BME280;60508;42.622;25.416;2023-04-15T10:05:59;96278.84;;;22.73;38.46
45078;BME280;60508;42.622;25.416;2023-04-15T10:08:30;96287.16;;;23.40;36.61
45078;BME280;60508;42.622;25.416;2023-04-15T10:10:58;96280.34;;;23.71;36.92
45078;BME280;60508;42.622;25.416;2023-04-15T10:13:29;96267.66;;;23.79;35.91
45078;BME280;60508;42.622;25.416;2023-04-15T10:16:26;96280.44;;;23.62;36.41
45078;BME280;60508;42.622;25.416;2023-04-15T10:18:54;96276.97;;;23.99;36.08
45078;BME280;60508;42.622;25.416;2023-04-15T10:21:21;96270.06;;;23.68;36.38
45078;BME280;60508;42.622;25.416;2023-04-15T10:23:49;96269.75;;;24.06;35.09
45078;BME280;60508;42.622;25.416;2023-04-15T10:26:15;96282.19;;;24.41;35.25
45078;BME280;60508;42.622;25.416;2023-04-15T10:28:45;96282.00;;;25.15;32.10
45078;BME280;60508;42.622;25.416;2023-04-15T10:31:15;96257.25;;;25.15;30.30
45078;BME280;60508;42.622;25.416;2023-04-15T10:33:42;96270.31;;;25.18;31.33
45078;BME280;60508;42.622;25.416;2023-04-15T10:36:10;96268.28;;;26.07;30.74
45078;BME280;60508;42.622;25.416;2023-04-15T10:38:38;96266.72;;;26.77;30.61
45078;BME280;60508;42.622;25.416;2023-04-15T10:46:21;96264.16;;;26.33;28.03
45078;BME280;60508;42.622;25.416;2023-04-15T10:48:52;96258.69;;;26.52;27.26
45078;BME280;60508;42.622;25.416;2023-04-15T10:51:30;96265.13;;;27.15;27.56
45078;BME280;60508;42.622;25.416;2023-04-15T10:53:59;96255.84;;;26.49;28.45
45078;BME280;60508;42.622;25.416;2023-04-15T10:56:27;96256.72;;;25.54;29.26
45078;BME280;60508;42.622;25.416;2023-04-15T10:58:54;96260.91;;;25.79;28.88
45078;BME280;60508;42.622;25.416;2023-04-15T11:01:21;96256.19;;;27.22;27.35
45078;BME280;60508;42.622;25.416;2023-04-15T11:03:50;96260.78;;;27.80;27.08
45078;BME280;60508;42.622;25.416;2023-04-15T11:06:16;96263.78;;;28.17;26.88
45078;BME280;60508;42.622;25.416;2023-04-15T11:08:58;96254.66;;;26.85;27.11
45078;BME280;60508;42.622;25.416;2023-04-15T11:12:04;96249.72;;;26.20;28.92
45078;BME280;60508;42.622;25.416;2023-04-15T11:14:32;96231.88;;;25.66;29.25
45078;BME280;60508;42.622;25.416;2023-04-15T11:17:00;96249.28;;;27.31;26.83
45078;BME280;60508;42.622;25.416;2023-04-15T11:19:34;96259.25;;;28.32;26.18
45078;BME280;60508;42.622;25.416;2023-04-15T11:22:08;96248.69;;;29.32;25.38
45078;BME280;60508;42.622;25.416;2023-04-15T11:24:36;96258.53;;;28.92;24.31
45078;BME280;60508;42.622;25.416;2023-04-15T11:27:02;96250.34;;;26.84;26.44
45078;BME280;60508;42.622;25.416;2023-04-15T11:29:31;96242.25;;;26.95;26.93
45078;BME280;60508;42.622;25.416;2023-04-15T11:32:04;96232.91;;;27.88;26.17
45078;BME280;60508;42.622;25.416;2023-04-15T11:34:32;96239.28;;;29.03;25.12
45078;BME280;60508;42.622;25.416;2023-04-15T11:36:57;96247.72;;;29.52;23.10
45078;BME280;60508;42.622;25.416;2023-04-15T11:39:23;96243.25;;;29.40;23.65
45078;BME280;60508;42.622;25.416;2023-04-15T11:41:49;96228.25;;;29.41;24.32
45078;BME280;60508;42.622;25.416;2023-04-15T11:44:18;96225.84;;;29.80;23.78
45078;BME280;60508;42.622;25.416;2023-04-15T11:46:44;96229.91;;;28.51;25.26
45078;BME280;60508;42.622;25.416;2023-04-15T11:49:10;96230.66;;;29.91;23.74
45078;BME280;60508;42.622;25.416;2023-04-15T11:51:36;96238.47;;;30.96;22.38
45078;BME280;60508;42.622;25.416;2023-04-15T11:54:01;96229.22;;;28.31;24.52
45078;BME280;60508;42.622;25.416;2023-04-15T11:56:28;96226.63;;;25.61;27.97
45078;BME280;60508;42.622;25.416;2023-04-15T11:58:56;96217.41;;;25.85;28.61
45078;BME280;60508;42.622;25.416;2023-04-15T12:01:37;96221.53;;;29.42;25.04
45078;BME280;60508;42.622;25.416;2023-04-15T12:04:16;96217.94;;;31.19;22.12
45078;BME280;60508;42.622;25.416;2023-04-15T12:06:44;96215.50;;;29.74;24.07
45078;BME280;60508;42.622;25.416;2023-04-15T12:09:17;96213.16;;;31.12;22.65
45078;BME280;60508;42.622;25.416;2023-04-15T12:14:19;96216.22;;;30.92;21.69
45078;BME280;60508;42.622;25.416;2023-04-15T12:16:47;96223.97;;;31.89;21.00
45078;BME280;60508;42.622;25.416;2023-04-15T12:19:15;96214.75;;;31.09;21.37
45078;BME280;60508;42.622;25.416;2023-04-15T12:21:44;96215.25;;;32.27;20.35
45078;BME280;60508;42.622;25.416;2023-04-15T12:24:12;96206.75;;;34.07;19.68
45078;BME280;60508;42.622;25.416;2023-04-15T12:26:45;96208.28;;;35.22;17.83
45078;BME280;60508;42.622;25.416;2023-04-15T12:29:13;96212.53;;;34.65;18.06
45078;BME280;60508;42.622;25.416;2023-04-15T12:31:47;96211.94;;;34.50;18.19
45078;BME280;60508;42.622;25.416;2023-04-15T12:34:14;96207.59;;;32.67;19.55
45078;BME280;60508;42.622;25.416;2023-04-15T12:36:40;96211.47;;;30.16;21.78
45078;BME280;60508;42.622;25.416;2023-04-15T12:39:06;96205.41;;;27.46;25.43
45078;BME280;60508;42.622;25.416;2023-04-15T12:41:32;96191.72;;;26.13;27.32
45078;BME280;60508;42.622;25.416;2023-04-15T12:43:58;96195.41;;;25.69;28.15
45078;BME280;60508;42.622;25.416;2023-04-15T12:46:25;96197.38;;;24.52;29.87
45078;BME280;60508;42.622;25.416;2023-04-15T12:48:52;96190.28;;;23.98;30.80
45078;BME280;60508;42.622;25.416;2023-04-15T12:51:18;96196.25;;;23.05;32.02
45078;BME280;60508;42.622;25.416;2023-04-15T12:53:46;96195.50;;;22.62;33.32
45078;BME280;60508;42.622;25.416;2023-04-15T12:56:13;96196.25;;;23.87;31.22
45078;BME280;60508;42.622;25.416;2023-04-15T12:58:39;96196.94;;;23.14;31.83